KGIF

Winter Haven's Gilbert Airport

Winter Haven, Florida, USA
METAR KGIF 250053Z AUTO 13009KT 10SM CLR 27/21 A3006 RMK AO2 SLP177 T02720211
Observed Flight Rules
May-25 @ 00:53 UTC (23 minutes ago) Visual Flight Rules
Wind Visibility Clouds
130° at 9 knots 10 miles
  • Clear skies
Temperatures Readings
Current 27°C / 81°F
Dewpoint 21°C / 70°F
Humidity 70%
Altimeter 30.06" Hg
Pressure 1017.7 hPa
Elevation 43
METAR KGIF 250053Z AUTO 13009KT 10SM CLR 27/21 A3006 RMK AO2 SLP177 T02720211
Observed Flight Rules
May-25 @ 00:53 UTC
(23 minutes ago)
VFR
Wind Visibility
130° at 9 knots 10 miles
Clouds
  • Clear skies
Temperature Dewpoint
27°C / 81°F 21°C / 70°F
Humidity Altimeter Pressure
70% 30.06" Hg 1017.7 hPa